sensor_id;sensor_type;location;lat;lon;timestamp;P1;durP1;ratioP1;P2;durP2;ratioP2
82032;SDS011;71595;52.180;4.512;2023-09-19T00:01:28;6.85;;;1.50;;
82032;SDS011;71595;52.180;4.512;2023-09-19T00:03:55;5.13;;;1.30;;
82032;SDS011;71595;52.180;4.512;2023-09-19T00:06:22;6.03;;;1.70;;
82032;SDS011;71595;52.180;4.512;2023-09-19T00:08:51;8.43;;;1.33;;
82032;SDS011;71595;52.180;4.512;2023-09-19T00:11:18;7.30;;;1.45;;
82032;SDS011;71595;52.180;4.512;2023-09-19T00:13:55;4.80;;;1.23;;
82032;SDS011;71595;52.180;4.512;2023-09-19T00:16:25;6.22;;;1.33;;
82032;SDS011;71595;52.180;4.512;2023-09-19T00:18:51;3.95;;;1.50;;
82032;SDS011;71595;52.180;4.512;2023-09-19T00:21:17;4.75;;;1.30;;
82032;SDS011;71595;52.180;4.512;2023-09-19T00:23:45;5.75;;;1.17;;
82032;SDS011;71595;52.180;4.512;2023-09-19T00:26:11;6.53;;;1.40;;
82032;SDS011;71595;52.180;4.512;2023-09-19T00:28:36;6.57;;;1.40;;
82032;SDS011;71595;52.180;4.512;2023-09-19T00:31:01;5.15;;;1.27;;
82032;SDS011;71595;52.180;4.512;2023-09-19T00:33:27;4.05;;;1.05;;
82032;SDS011;71595;52.180;4.512;2023-09-19T00:35:54;5.10;;;1.60;;
82032;SDS011;71595;52.180;4.512;2023-09-19T00:38:22;6.57;;;1.25;;
82032;SDS011;71595;52.180;4.512;2023-09-19T00:40:51;4.78;;;1.17;;
82032;SDS011;71595;52.180;4.512;2023-09-19T00:43:19;4.75;;;1.05;;
82032;SDS011;71595;52.180;4.512;2023-09-19T00:45:46;3.40;;;1.02;;
82032;SDS011;71595;52.180;4.512;2023-09-19T00:48:14;5.10;;;1.30;;
82032;SDS011;71595;52.180;4.512;2023-09-19T00:50:44;6.28;;;1.20;;
82032;SDS011;71595;52.180;4.512;2023-09-19T00:55:39;5.90;;;1.30;;
82032;SDS011;71595;52.180;4.512;2023-09-19T00:58:09;7.68;;;1.80;;
82032;SDS011;71595;52.180;4.512;2023-09-19T01:00:35;5.30;;;1.58;;
82032;SDS011;71595;52.180;4.512;2023-09-19T01:03:01;7.32;;;1.40;;
82032;SDS011;71595;52.180;4.512;2023-09-19T01:05:27;6.43;;;1.73;;
82032;SDS011;71595;52.180;4.512;2023-09-19T01:07:53;8.02;;;1.38;;
82032;SDS011;71595;52.180;4.512;2023-09-19T01:10:18;7.05;;;1.20;;
82032;SDS011;71595;52.180;4.512;2023-09-19T01:18:20;7.28;;;2.67;;
82032;SDS011;71595;52.180;4.512;2023-09-19T01:27:44;5.43;;;1.25;;
82032;SDS011;71595;52.180;4.512;2023-09-19T01:29:42;8.57;;;1.73;;
82032;SDS011;71595;52.180;4.512;2023-09-19T01:32:11;8.20;;;2.00;;
82032;SDS011;71595;52.180;4.512;2023-09-19T01:37:14;8.02;;;1.55;;
82032;SDS011;71595;52.180;4.512;2023-09-19T01:39:44;14.05;;;1.80;;
82032;SDS011;71595;52.180;4.512;2023-09-19T01:42:35;6.03;;;1.35;;
82032;SDS011;71595;52.180;4.512;2023-09-19T01:47:33;10.27;;;1.80;;
82032;SDS011;71595;52.180;4.512;2023-09-19T01:55:53;7.55;;;1.63;;
82032;SDS011;71595;52.180;4.512;2023-09-19T01:58:21;4.75;;;1.00;;
82032;SDS011;71595;52.180;4.512;2023-09-19T02:00:52;10.45;;;1.60;;
82032;SDS011;71595;52.180;4.512;2023-09-19T02:03:20;7.97;;;1.40;;
82032;SDS011;71595;52.180;4.512;2023-09-19T02:05:50;7.57;;;1.40;;
82032;SDS011;71595;52.180;4.512;2023-09-19T02:08:19;7.35;;;1.67;;
82032;SDS011;71595;52.180;4.512;2023-09-19T02:10:48;5.63;;;1.92;;
82032;SDS011;71595;52.180;4.512;2023-09-19T02:13:17;9.07;;;1.40;;
82032;SDS011;71595;52.180;4.512;2023-09-19T02:15:44;7.43;;;1.60;;
82032;SDS011;71595;52.180;4.512;2023-09-19T02:18:10;6.60;;;1.48;;
82032;SDS011;71595;52.180;4.512;2023-09-19T02:20:36;6.35;;;1.30;;
82032;SDS011;71595;52.180;4.512;2023-09-19T02:23:02;5.60;;;1.35;;
82032;SDS011;71595;52.180;4.512;2023-09-19T02:25:28;9.63;;;1.88;;
82032;SDS011;71595;52.180;4.512;2023-09-19T02:27:54;7.90;;;1.73;;
82032;SDS011;71595;52.180;4.512;2023-09-19T02:30:19;6.97;;;1.40;;
82032;SDS011;71595;52.180;4.512;2023-09-19T02:32:48;5.65;;;1.42;;
82032;SDS011;71595;52.180;4.512;2023-09-19T02:35:14;6.60;;;1.50;;
82032;SDS011;71595;52.180;4.512;2023-09-19T02:37:44;7.15;;;1.20;;
82032;SDS011;71595;52.180;4.512;2023-09-19T02:40:10;6.22;;;1.98;;
82032;SDS011;71595;52.180;4.512;2023-09-19T02:42:46;11.02;;;1.83;;
82032;SDS011;71595;52.180;4.512;2023-09-19T02:45:18;7.88;;;1.67;;
82032;SDS011;71595;52.180;4.512;2023-09-19T02:47:44;5.60;;;1.20;;
82032;SDS011;71595;52.180;4.512;2023-09-19T02:50:10;5.78;;;1.08;;
82032;SDS011;71595;52.180;4.512;2023-09-19T02:52:36;6.65;;;1.50;;
82032;SDS011;71595;52.180;4.512;2023-09-19T02:55:02;9.77;;;2.28;;
82032;SDS011;71595;52.180;4.512;2023-09-19T02:57:29;7.10;;;1.40;;
82032;SDS011;71595;52.180;4.512;2023-09-19T02:59:58;6.13;;;1.38;;
82032;SDS011;71595;52.180;4.512;2023-09-19T03:02:28;5.30;;;1.40;;
82032;SDS011;71595;52.180;4.512;2023-09-19T03:04:53;6.13;;;1.52;;
82032;SDS011;71595;52.180;4.512;2023-09-19T03:07:19;8.55;;;2.08;;
82032;SDS011;71595;52.180;4.512;2023-09-19T03:09:44;5.13;;;1.35;;
82032;SDS011;71595;52.180;4.512;2023-09-19T03:12:10;7.75;;;1.75;;
82032;SDS011;71595;52.180;4.512;2023-09-19T03:14:36;6.03;;;1.63;;
82032;SDS011;71595;52.180;4.512;2023-09-19T03:17:01;7.93;;;1.77;;
82032;SDS011;71595;52.180;4.512;2023-09-19T03:19:30;6.18;;;1.42;;
82032;SDS011;71595;52.180;4.512;2023-09-19T03:21:58;7.45;;;1.45;;
82032;SDS011;71595;52.180;4.512;2023-09-19T03:24:24;7.80;;;1.70;;
82032;SDS011;71595;52.180;4.512;2023-09-19T03:26:49;5.22;;;1.27;;
82032;SDS011;71595;52.180;4.512;2023-09-19T03:29:14;3.95;;;1.02;;
82032;SDS011;71595;52.180;4.512;2023-09-19T03:31:42;7.70;;;1.40;;
82032;SDS011;71595;52.180;4.512;2023-09-19T03:34:07;6.95;;;1.30;;
82032;SDS011;71595;52.180;4.512;2023-09-19T03:36:33;6.47;;;1.52;;
82032;SDS011;71595;52.180;4.512;2023-09-19T03:38:59;5.55;;;1.05;;
82032;SDS011;71595;52.180;4.512;2023-09-19T03:41:40;5.93;;;1.10;;
82032;SDS011;71595;52.180;4.512;2023-09-19T03:44:06;5.97;;;1.00;;
82032;SDS011;71595;52.180;4.512;2023-09-19T03:46:31;5.30;;;1.60;;
82032;SDS011;71595;52.180;4.512;2023-09-19T03:48:57;11.45;;;1.40;;
82032;SDS011;71595;52.180;4.512;2023-09-19T03:51:22;8.18;;;1.60;;
82032;SDS011;71595;52.180;4.512;2023-09-19T03:53:48;5.15;;;1.23;;
82032;SDS011;71595;52.180;4.512;2023-09-19T03:56:15;5.93;;;1.25;;
82032;SDS011;71595;52.180;4.512;2023-09-19T03:58:42;5.60;;;1.30;;
82032;SDS011;71595;52.180;4.512;2023-09-19T04:01:07;6.80;;;1.10;;
82032;SDS011;71595;52.180;4.512;2023-09-19T04:03:33;6.32;;;1.30;;
82032;SDS011;71595;52.180;4.512;2023-09-19T04:06:15;5.97;;;1.40;;
82032;SDS011;71595;52.180;4.512;2023-09-19T04:08:41;6.45;;;1.10;;
82032;SDS011;71595;52.180;4.512;2023-09-19T04:11:08;3.38;;;1.23;;
82032;SDS011;71595;52.180;4.512;2023-09-19T04:13:33;6.30;;;1.90;;
82032;SDS011;71595;52.180;4.512;2023-09-19T04:15:59;6.75;;;1.35;;
82032;SDS011;71595;52.180;4.512;2023-09-19T04:18:25;4.60;;;1.00;;
82032;SDS011;71595;52.180;4.512;2023-09-19T04:20:50;6.97;;;1.08;;
82032;SDS011;71595;52.180;4.512;2023-09-19T04:23:16;6.05;;;1.02;;
82032;SDS011;71595;52.180;4.512;2023-09-19T04:25:42;5.70;;;1.20;;
82032;SDS011;71595;52.180;4.512;2023-09-19T04:28:08;7.05;;;1.52;;
82032;SDS011;71595;52.180;4.512;2023-09-19T04:30:36;8.05;;;1.20;;
82032;SDS011;71595;52.180;4.512;2023-09-19T04:33:01;6.35;;;1.38;;
82032;SDS011;71595;52.180;4.512;2023-09-19T04:35:29;9.43;;;1.80;;
82032;SDS011;71595;52.180;4.512;2023-09-19T04:37:56;5.43;;;1.02;;
82032;SDS011;71595;52.180;4.512;2023-09-19T04:40:22;8.73;;;1.50;;
82032;SDS011;71595;52.180;4.512;2023-09-19T04:42:56;4.80;;;1.15;;
82032;SDS011;71595;52.180;4.512;2023-09-19T04:45:24;6.80;;;1.40;;
82032;SDS011;71595;52.180;4.512;2023-09-19T04:47:51;4.82;;;1.13;;
82032;SDS011;71595;52.180;4.512;2023-09-19T04:50:17;10.65;;;1.83;;
82032;SDS011;71595;52.180;4.512;2023-09-19T04:52:43;9.15;;;1.30;;
82032;SDS011;71595;52.180;4.512;2023-09-19T04:55:12;6.72;;;1.50;;
82032;SDS011;71595;52.180;4.512;2023-09-19T04:57:48;3.50;;;1.10;;
82032;SDS011;71595;52.180;4.512;2023-09-19T05:00:27;6.13;;;1.35;;
82032;SDS011;71595;52.180;4.512;2023-09-19T05:02:56;4.88;;;1.40;;
82032;SDS011;71595;52.180;4.512;2023-09-19T05:05:22;5.32;;;1.40;;
82032;SDS011;71595;52.180;4.512;2023-09-19T05:07:49;7.70;;;1.70;;
82032;SDS011;71595;52.180;4.512;2023-09-19T05:10:14;8.68;;;1.90;;
82032;SDS011;71595;52.180;4.512;2023-09-19T05:12:43;5.05;;;1.27;;
82032;SDS011;71595;52.180;4.512;2023-09-19T05:15:14;8.68;;;1.73;;
82032;SDS011;71595;52.180;4.512;2023-09-19T05:17:42;7.82;;;1.58;;
82032;SDS011;71595;52.180;4.512;2023-09-19T05:20:12;7.03;;;1.38;;
82032;SDS011;71595;52.180;4.512;2023-09-19T05:22:49;6.47;;;1.40;;
82032;SDS011;71595;52.180;4.512;2023-09-19T05:25:15;4.35;;;1.38;;
82032;SDS011;71595;52.180;4.512;2023-09-19T05:27:43;5.63;;;1.27;;
82032;SDS011;71595;52.180;4.512;2023-09-19T05:30:08;6.53;;;1.77;;
82032;SDS011;71595;52.180;4.512;2023-09-19T05:32:34;8.60;;;1.50;;
82032;SDS011;71595;52.180;4.512;2023-09-19T05:35:00;6.68;;;1.42;;
82032;SDS011;71595;52.180;4.512;2023-09-19T05:37:25;8.23;;;1.30;;
82032;SDS011;71595;52.180;4.512;2023-09-19T05:39:51;4.22;;;1.30;;
82032;SDS011;71595;52.180;4.512;2023-09-19T05:42:18;5.30;;;1.20;;
82032;SDS011;71595;52.180;4.512;2023-09-19T05:44:43;9.18;;;1.70;;
82032;SDS011;71595;52.180;4.512;2023-09-19T05:47:08;11.13;;;1.77;;
82032;SDS011;71595;52.180;4.512;2023-09-19T05:49:37;6.03;;;1.20;;
82032;SDS011;71595;52.180;4.512;2023-09-19T05:52:06;7.35;;;1.67;;
82032;SDS011;71595;52.180;4.512;2023-09-19T05:54:32;6.68;;;1.33;;
82032;SDS011;71595;52.180;4.512;2023-09-19T05:56:59;6.60;;;2.25;;
82032;SDS011;71595;52.180;4.512;2023-09-19T05:59:25;6.30;;;1.35;;
82032;SDS011;71595;52.180;4.512;2023-09-19T06:01:50;8.32;;;1.48;;
82032;SDS011;71595;52.180;4.512;2023-09-19T06:04:17;8.90;;;1.45;;
82032;SDS011;71595;52.180;4.512;2023-09-19T06:06:44;14.05;;;1.95;;
82032;SDS011;71595;52.180;4.512;2023-09-19T06:09:09;8.75;;;1.88;;
82032;SDS011;71595;52.180;4.512;2023-09-19T06:11:35;11.82;;;1.63;;
82032;SDS011;71595;52.180;4.512;2023-09-19T06:14:01;9.98;;;2.20;;
82032;SDS011;71595;52.180;4.512;2023-09-19T06:19:49;6.47;;;1.33;;
82032;SDS011;71595;52.180;4.512;2023-09-19T06:22:22;9.52;;;2.13;;
82032;SDS011;71595;52.180;4.512;2023-09-19T06:24:55;8.10;;;1.70;;
82032;SDS011;71595;52.180;4.512;2023-09-19T06:27:21;10.27;;;1.90;;
82032;SDS011;71595;52.180;4.512;2023-09-19T06:29:47;9.02;;;1.45;;
82032;SDS011;71595;52.180;4.512;2023-09-19T06:32:12;11.35;;;2.03;;
82032;SDS011;71595;52.180;4.512;2023-09-19T06:34:37;10.45;;;2.40;;
82032;SDS011;71595;52.180;4.512;2023-09-19T06:37:03;11.85;;;2.47;;
82032;SDS011;71595;52.180;4.512;2023-09-19T06:39:31;9.50;;;1.85;;
82032;SDS011;71595;52.180;4.512;2023-09-19T06:41:56;9.68;;;1.95;;
82032;SDS011;71595;52.180;4.512;2023-09-19T06:44:23;7.75;;;1.50;;
82032;SDS011;71595;52.180;4.512;2023-09-19T06:46:49;7.20;;;1.52;;
82032;SDS011;71595;52.180;4.512;2023-09-19T06:49:16;10.27;;;2.03;;
82032;SDS011;71595;52.180;4.512;2023-09-19T06:51:42;6.32;;;1.17;;
82032;SDS011;71595;52.180;4.512;2023-09-19T06:54:08;9.15;;;1.45;;
82032;SDS011;71595;52.180;4.512;2023-09-19T06:56:34;5.57;;;1.83;;
82032;SDS011;71595;52.180;4.512;2023-09-19T06:59:00;8.63;;;2.33;;
82032;SDS011;71595;52.180;4.512;2023-09-19T07:01:27;12.60;;;2.53;;
82032;SDS011;71595;52.180;4.512;2023-09-19T07:03:52;4.28;;;1.35;;
82032;SDS011;71595;52.180;4.512;2023-09-19T07:06:18;7.78;;;1.60;;
82032;SDS011;71595;52.180;4.512;2023-09-19T07:08:43;9.45;;;1.83;;
82032;SDS011;71595;52.180;4.512;2023-09-19T07:11:10;6.65;;;1.52;;
82032;SDS011;71595;52.180;4.512;2023-09-19T07:13:37;8.45;;;1.85;;
82032;SDS011;71595;52.180;4.512;2023-09-19T07:16:03;6.93;;;1.75;;
82032;SDS011;71595;52.180;4.512;2023-09-19T07:18:29;7.88;;;1.65;;
82032;SDS011;71595;52.180;4.512;2023-09-19T07:20:56;13.18;;;1.92;;
82032;SDS011;71595;52.180;4.512;2023-09-19T07:23:26;11.20;;;1.75;;
82032;SDS011;71595;52.180;4.512;2023-09-19T07:25:52;14.38;;;2.38;;
82032;SDS011;71595;52.180;4.512;2023-09-19T07:28:21;6.57;;;1.55;;
82032;SDS011;71595;52.180;4.512;2023-09-19T07:30:47;10.43;;;2.03;;
82032;SDS011;71595;52.180;4.512;2023-09-19T07:33:13;9.75;;;1.95;;
82032;SDS011;71595;52.180;4.512;2023-09-19T07:35:38;5.88;;;1.77;;
82032;SDS011;71595;52.180;4.512;2023-09-19T07:38:08;9.70;;;1.75;;
82032;SDS011;71595;52.180;4.512;2023-09-19T07:40:36;5.30;;;1.63;;
82032;SDS011;71595;52.180;4.512;2023-09-19T07:43:01;7.68;;;1.70;;
82032;SDS011;71595;52.180;4.512;2023-09-19T07:45:27;7.03;;;1.52;;
82032;SDS011;71595;52.180;4.512;2023-09-19T07:47:55;9.13;;;1.80;;
82032;SDS011;71595;52.180;4.512;2023-09-19T07:50:20;9.48;;;2.08;;
82032;SDS011;71595;52.180;4.512;2023-09-19T07:52:46;8.35;;;1.88;;
82032;SDS011;71595;52.180;4.512;2023-09-19T07:55:12;12.55;;;2.35;;
82032;SDS011;71595;52.180;4.512;2023-09-19T07:57:41;6.60;;;1.60;;
82032;SDS011;71595;52.180;4.512;2023-09-19T08:00:07;11.00;;;2.20;;
82032;SDS011;71595;52.180;4.512;2023-09-19T08:02:35;6.57;;;1.90;;
82032;SDS011;71595;52.180;4.512;2023-09-19T08:05:07;8.93;;;1.70;;
82032;SDS011;71595;52.180;4.512;2023-09-19T08:07:52;7.40;;;2.25;;
82032;SDS011;71595;52.180;4.512;2023-09-19T08:10:18;10.02;;;1.65;;
82032;SDS011;71595;52.180;4.512;2023-09-19T08:12:45;5.80;;;1.80;;
82032;SDS011;71595;52.180;4.512;2023-09-19T08:15:15;9.40;;;2.53;;
82032;SDS011;71595;52.180;4.512;2023-09-19T08:17:41;11.57;;;2.75;;
82032;SDS011;71595;52.180;4.512;2023-09-19T08:20:07;10.48;;;1.77;;
82032;SDS011;71595;52.180;4.512;2023-09-19T08:22:41;11.40;;;2.47;;
82032;SDS011;71595;52.180;4.512;2023-09-19T08:25:12;9.52;;;1.92;;
82032;SDS011;71595;52.180;4.512;2023-09-19T08:27:38;9.20;;;1.88;;
82032;SDS011;71595;52.180;4.512;2023-09-19T08:30:04;7.47;;;1.90;;
82032;SDS011;71595;52.180;4.512;2023-09-19T08:32:31;10.93;;;1.95;;
82032;SDS011;71595;52.180;4.512;2023-09-19T08:34:57;8.73;;;1.77;;
82032;SDS011;71595;52.180;4.512;2023-09-19T08:37:22;8.13;;;1.83;;
82032;SDS011;71595;52.180;4.512;2023-09-19T08:39:47;10.90;;;1.88;;
82032;SDS011;71595;52.180;4.512;2023-09-19T08:42:13;8.27;;;1.80;;
82032;SDS011;71595;52.180;4.512;2023-09-19T08:44:42;9.48;;;2.28;;
82032;SDS011;71595;52.180;4.512;2023-09-19T08:47:13;7.15;;;2.25;;
82032;SDS011;71595;52.180;4.512;2023-09-19T08:52:28;6.00;;;1.60;;
82032;SDS011;71595;52.180;4.512;2023-09-19T08:58:03;8.07;;;2.35;;
82032;SDS011;71595;52.180;4.512;2023-09-19T09:00:29;8.30;;;2.83;;
82032;SDS011;71595;52.180;4.512;2023-09-19T09:02:56;7.82;;;1.83;;
82032;SDS011;71595;52.180;4.512;2023-09-19T09:05:23;8.82;;;1.92;;
82032;SDS011;71595;52.180;4.512;2023-09-19T09:07:51;6.82;;;1.98;;
82032;SDS011;71595;52.180;4.512;2023-09-19T09:10:20;13.38;;;2.53;;
82032;SDS011;71595;52.180;4.512;2023-09-19T09:12:52;13.85;;;2.40;;
82032;SDS011;71595;52.180;4.512;2023-09-19T09:15:21;8.98;;;2.05;;
82032;SDS011;71595;52.180;4.512;2023-09-19T09:17:49;9.25;;;2.20;;
82032;SDS011;71595;52.180;4.512;2023-09-19T09:20:18;7.82;;;1.88;;
82032;SDS011;71595;52.180;4.512;2023-09-19T09:22:54;11.88;;;2.20;;
82032;SDS011;71595;52.180;4.512;2023-09-19T09:25:21;4.50;;;1.50;;
82032;SDS011;71595;52.180;4.512;2023-09-19T09:28:01;9.93;;;2.22;;
82032;SDS011;71595;52.180;4.512;2023-09-19T09:33:12;8.68;;;1.85;;
82032;SDS011;71595;52.180;4.512;2023-09-19T09:35:51;10.43;;;2.03;;
82032;SDS011;71595;52.180;4.512;2023-09-19T09:38:23;7.45;;;2.13;;
82032;SDS011;71595;52.180;4.512;2023-09-19T09:40:57;10.00;;;2.45;;
82032;SDS011;71595;52.180;4.512;2023-09-19T09:43:25;8.25;;;2.00;;
82032;SDS011;71595;52.180;4.512;2023-09-19T09:46:07;6.57;;;1.70;;
82032;SDS011;71595;52.180;4.512;2023-09-19T09:51:38;10.45;;;1.75;;
82032;SDS011;71595;52.180;4.512;2023-09-19T09:54:16;9.75;;;2.00;;
82032;SDS011;71595;52.180;4.512;2023-09-19T09:59:19;7.90;;;1.90;;
82032;SDS011;71595;52.180;4.512;2023-09-19T10:01:49;10.90;;;2.15;;
82032;SDS011;71595;52.180;4.512;2023-09-19T10:04:36;7.78;;;1.52;;
82032;SDS011;71595;52.180;4.512;2023-09-19T10:07:23;9.82;;;1.85;;
82032;SDS011;71595;52.180;4.512;2023-09-19T10:10:01;8.38;;;1.67;;
82032;SDS011;71595;52.180;4.512;2023-09-19T10:12:46;8.70;;;1.50;;
82032;SDS011;71595;52.180;4.512;2023-09-19T10:15:13;8.75;;;1.85;;
82032;SDS011;71595;52.180;4.512;2023-09-19T10:17:43;9.00;;;1.77;;
82032;SDS011;71595;52.180;4.512;2023-09-19T10:20:14;9.48;;;1.40;;
82032;SDS011;71595;52.180;4.512;2023-09-19T10:23:00;9.48;;;2.00;;
82032;SDS011;71595;52.180;4.512;2023-09-19T10:25:29;7.05;;;1.52;;
82032;SDS011;71595;52.180;4.512;2023-09-19T10:27:55;5.63;;;1.70;;
82032;SDS011;71595;52.180;4.512;2023-09-19T10:30:24;8.43;;;1.38;;
82032;SDS011;71595;52.180;4.512;2023-09-19T10:32:59;6.32;;;1.75;;
82032;SDS011;71595;52.180;4.512;2023-09-19T10:35:32;3.30;;;1.20;;
82032;SDS011;71595;52.180;4.512;2023-09-19T10:38:01;7.70;;;1.60;;
82032;SDS011;71595;52.180;4.512;2023-09-19T10:40:28;5.47;;;1.35;;
82032;SDS011;71595;52.180;4.512;2023-09-19T10:43:03;11.77;;;1.95;;
82032;SDS011;71595;52.180;4.512;2023-09-19T10:45:30;8.75;;;1.40;;
82032;SDS011;71595;52.180;4.512;2023-09-19T10:47:57;6.95;;;1.75;;
82032;SDS011;71595;52.180;4.512;2023-09-19T10:50:22;7.93;;;2.00;;
82032;SDS011;71595;52.180;4.512;2023-09-19T10:52:48;8.48;;;1.70;;
82032;SDS011;71595;52.180;4.512;2023-09-19T10:55:17;6.28;;;1.98;;
82032;SDS011;71595;52.180;4.512;2023-09-19T10:57:44;4.32;;;1.10;;
82032;SDS011;71595;52.180;4.512;2023-09-19T11:00:11;8.77;;;1.50;;
82032;SDS011;71595;52.180;4.512;2023-09-19T11:05:43;6.65;;;1.77;;
82032;SDS011;71595;52.180;4.512;2023-09-19T11:25:47;5.65;;;1.48;;
82032;SDS011;71595;52.180;4.512;2023-09-19T11:30:42;5.90;;;1.50;;
82032;SDS011;71595;52.180;4.512;2023-09-19T11:33:22;7.03;;;1.48;;
82032;SDS011;71595;52.180;4.512;2023-09-19T11:44:38;6.38;;;1.20;;
82032;SDS011;71595;52.180;4.512;2023-09-19T11:49:15;7.35;;;1.55;;
82032;SDS011;71595;52.180;4.512;2023-09-19T11:51:45;5.70;;;1.38;;
82032;SDS011;71595;52.180;4.512;2023-09-19T11:54:13;5.85;;;1.30;;
82032;SDS011;71595;52.180;4.512;2023-09-19T11:56:53;5.43;;;1.30;;
82032;SDS011;71595;52.180;4.512;2023-09-19T11:59:23;8.10;;;1.80;;
82032;SDS011;71595;52.180;4.512;2023-09-19T12:02:00;4.22;;;1.30;;
82032;SDS011;71595;52.180;4.512;2023-09-19T12:04:41;3.38;;;1.33;;
82032;SDS011;71595;52.180;4.512;2023-09-19T12:09:45;4.68;;;1.65;;
82032;SDS011;71595;52.180;4.512;2023-09-19T12:12:28;4.50;;;1.77;;
82032;SDS011;71595;52.180;4.512;2023-09-19T12:14:55;4.28;;;1.58;;
82032;SDS011;71595;52.180;4.512;2023-09-19T12:17:23;4.18;;;1.70;;
82032;SDS011;71595;52.180;4.512;2023-09-19T12:20:01;5.40;;;1.80;;
82032;SDS011;71595;52.180;4.512;2023-09-19T12:22:41;7.93;;;1.80;;
82032;SDS011;71595;52.180;4.512;2023-09-19T12:25:09;7.20;;;1.48;;
82032;SDS011;71595;52.180;4.512;2023-09-19T12:27:45;7.03;;;1.60;;
82032;SDS011;71595;52.180;4.512;2023-09-19T12:30:12;4.85;;;1.60;;
82032;SDS011;71595;52.180;4.512;2023-09-19T12:32:43;9.80;;;1.90;;
82032;SDS011;71595;52.180;4.512;2023-09-19T12:35:27;5.22;;;1.60;;
82032;SDS011;71595;52.180;4.512;2023-09-19T12:37:55;8.07;;;1.83;;
82032;SDS011;71595;52.180;4.512;2023-09-19T12:40:21;7.32;;;1.88;;
82032;SDS011;71595;52.180;4.512;2023-09-19T12:42:52;6.47;;;1.50;;
82032;SDS011;71595;52.180;4.512;2023-09-19T12:45:20;4.70;;;1.90;;
82032;SDS011;71595;52.180;4.512;2023-09-19T12:53:34;9.77;;;1.70;;
82032;SDS011;71595;52.180;4.512;2023-09-19T12:56:05;6.97;;;1.60;;
82032;SDS011;71595;52.180;4.512;2023-09-19T12:58:33;6.15;;;2.10;;
82032;SDS011;71595;52.180;4.512;2023-09-19T13:01:00;6.38;;;1.95;;
82032;SDS011;71595;52.180;4.512;2023-09-19T13:03:27;6.13;;;1.60;;
82032;SDS011;71595;52.180;4.512;2023-09-19T13:06:00;4.05;;;1.70;;
82032;SDS011;71595;52.180;4.512;2023-09-19T13:08:34;5.88;;;1.73;;
82032;SDS011;71595;52.180;4.512;2023-09-19T13:11:04;5.80;;;1.60;;
82032;SDS011;71595;52.180;4.512;2023-09-19T13:13:35;4.57;;;1.73;;
82032;SDS011;71595;52.180;4.512;2023-09-19T13:16:02;5.60;;;1.77;;
82032;SDS011;71595;52.180;4.512;2023-09-19T13:18:48;7.55;;;1.95;;
82032;SDS011;71595;52.180;4.512;2023-09-19T13:21:29;5.85;;;2.10;;
82032;SDS011;71595;52.180;4.512;2023-09-19T13:24:18;6.28;;;1.70;;
82032;SDS011;71595;52.180;4.512;2023-09-19T13:26:43;5.30;;;2.00;;
82032;SDS011;71595;52.180;4.512;2023-09-19T13:29:09;4.88;;;1.83;;
82032;SDS011;71595;52.180;4.512;2023-09-19T13:31:40;5.00;;;1.42;;
82032;SDS011;71595;52.180;4.512;2023-09-19T13:34:06;8.63;;;1.45;;
82032;SDS011;71595;52.180;4.512;2023-09-19T13:36:32;8.23;;;1.70;;
82032;SDS011;71595;52.180;4.512;2023-09-19T13:38:58;8.55;;;2.05;;
82032;SDS011;71595;52.180;4.512;2023-09-19T13:41:25;11.38;;;2.05;;
82032;SDS011;71595;52.180;4.512;2023-09-19T13:43:51;8.85;;;2.35;;
82032;SDS011;71595;52.180;4.512;2023-09-19T13:46:16;8.30;;;2.30;;
82032;SDS011;71595;52.180;4.512;2023-09-19T13:48:42;9.63;;;2.10;;
82032;SDS011;71595;52.180;4.512;2023-09-19T13:51:08;8.63;;;2.28;;
82032;SDS011;71595;52.180;4.512;2023-09-19T13:53:36;8.70;;;2.05;;
82032;SDS011;71595;52.180;4.512;2023-09-19T13:56:02;7.40;;;2.05;;
82032;SDS011;71595;52.180;4.512;2023-09-19T13:58:27;6.20;;;1.95;;
82032;SDS011;71595;52.180;4.512;2023-09-19T14:00:53;7.60;;;2.20;;
82032;SDS011;71595;52.180;4.512;2023-09-19T14:03:23;12.70;;;2.28;;
82032;SDS011;71595;52.180;4.512;2023-09-19T14:05:49;5.97;;;2.25;;
82032;SDS011;71595;52.180;4.512;2023-09-19T14:08:16;7.20;;;1.90;;
82032;SDS011;71595;52.180;4.512;2023-09-19T14:10:41;8.25;;;2.20;;
82032;SDS011;71595;52.180;4.512;2023-09-19T14:13:07;12.15;;;2.53;;
82032;SDS011;71595;52.180;4.512;2023-09-19T14:15:32;14.57;;;2.83;;
82032;SDS011;71595;52.180;4.512;2023-09-19T14:18:04;12.25;;;2.80;;
82032;SDS011;71595;52.180;4.512;2023-09-19T14:20:30;7.22;;;2.17;;
82032;SDS011;71595;52.180;4.512;2023-09-19T14:22:56;6.40;;;2.13;;
82032;SDS011;71595;52.180;4.512;2023-09-19T14:25:24;12.00;;;2.10;;
82032;SDS011;71595;52.180;4.512;2023-09-19T14:27:50;11.05;;;2.35;;
82032;SDS011;71595;52.180;4.512;2023-09-19T14:30:15;12.57;;;2.40;;
82032;SDS011;71595;52.180;4.512;2023-09-19T14:32:41;10.25;;;2.38;;
82032;SDS011;71595;52.180;4.512;2023-09-19T14:35:07;7.32;;;1.80;;
82032;SDS011;71595;52.180;4.512;2023-09-19T14:37:34;6.85;;;2.15;;
82032;SDS011;71595;52.180;4.512;2023-09-19T14:40:00;8.68;;;1.90;;
82032;SDS011;71595;52.180;4.512;2023-09-19T14:42:32;8.63;;;2.60;;
82032;SDS011;71595;52.180;4.512;2023-09-19T14:44:57;8.98;;;2.22;;
82032;SDS011;71595;52.180;4.512;2023-09-19T14:47:30;6.00;;;1.90;;
82032;SDS011;71595;52.180;4.512;2023-09-19T14:49:56;9.27;;;2.00;;
82032;SDS011;71595;52.180;4.512;2023-09-19T14:52:23;9.27;;;1.90;;
82032;SDS011;71595;52.180;4.512;2023-09-19T14:54:48;9.95;;;1.90;;
82032;SDS011;71595;52.180;4.512;2023-09-19T14:57:14;13.93;;;2.35;;
82032;SDS011;71595;52.180;4.512;2023-09-19T14:59:39;8.65;;;2.13;;
82032;SDS011;71595;52.180;4.512;2023-09-19T15:02:05;8.35;;;2.15;;
82032;SDS011;71595;52.180;4.512;2023-09-19T15:04:40;7.90;;;2.70;;
82032;SDS011;71595;52.180;4.512;2023-09-19T15:07:05;12.10;;;2.78;;
82032;SDS011;71595;52.180;4.512;2023-09-19T15:09:31;12.43;;;2.33;;
82032;SDS011;71595;52.180;4.512;2023-09-19T15:11:58;15.85;;;2.47;;
82032;SDS011;71595;52.180;4.512;2023-09-19T15:14:24;7.70;;;2.15;;
82032;SDS011;71595;52.180;4.512;2023-09-19T15:16:50;6.88;;;2.17;;
82032;SDS011;71595;52.180;4.512;2023-09-19T15:19:15;9.40;;;2.38;;
82032;SDS011;71595;52.180;4.512;2023-09-19T15:21:42;9.15;;;2.40;;
82032;SDS011;71595;52.180;4.512;2023-09-19T15:24:08;9.02;;;2.40;;
82032;SDS011;71595;52.180;4.512;2023-09-19T15:26:35;13.85;;;2.97;;
82032;SDS011;71595;52.180;4.512;2023-09-19T15:29:04;11.52;;;2.88;;
82032;SDS011;71595;52.180;4.512;2023-09-19T15:31:34;12.48;;;2.83;;
82032;SDS011;71595;52.180;4.512;2023-09-19T15:34:03;8.13;;;3.05;;
82032;SDS011;71595;52.180;4.512;2023-09-19T15:36:28;10.73;;;2.88;;
82032;SDS011;71595;52.180;4.512;2023-09-19T15:39:01;10.63;;;3.22;;
82032;SDS011;71595;52.180;4.512;2023-09-19T15:41:37;14.30;;;3.00;;
82032;SDS011;71595;52.180;4.512;2023-09-19T15:44:04;11.68;;;2.95;;
82032;SDS011;71595;52.180;4.512;2023-09-19T15:46:30;8.85;;;3.15;;
82032;SDS011;71595;52.180;4.512;2023-09-19T15:48:58;9.45;;;2.08;;
82032;SDS011;71595;52.180;4.512;2023-09-19T15:51:25;8.63;;;2.30;;
82032;SDS011;71595;52.180;4.512;2023-09-19T15:53:52;6.38;;;2.15;;
82032;SDS011;71595;52.180;4.512;2023-09-19T15:56:19;10.55;;;2.65;;
82032;SDS011;71595;52.180;4.512;2023-09-19T15:58:49;8.55;;;2.10;;
82032;SDS011;71595;52.180;4.512;2023-09-19T16:01:17;7.93;;;2.22;;
82032;SDS011;71595;52.180;4.512;2023-09-19T16:03:45;11.73;;;3.25;;
82032;SDS011;71595;52.180;4.512;2023-09-19T16:06:17;9.77;;;2.35;;
82032;SDS011;71595;52.180;4.512;2023-09-19T16:08:45;9.57;;;3.17;;
82032;SDS011;71595;52.180;4.512;2023-09-19T16:11:13;11.20;;;2.50;;
82032;SDS011;71595;52.180;4.512;2023-09-19T16:13:40;11.02;;;2.35;;
82032;SDS011;71595;52.180;4.512;2023-09-19T16:16:09;9.60;;;2.67;;
82032;SDS011;71595;52.180;4.512;2023-09-19T16:18:39;9.50;;;2.30;;